Bolero — V7PB4 — position and weather

sailwx.info

Track history (hours):
 
Tides and Currents Weather Stations Pressure Air Temp Water Temp Dewpoint Dewpoint Depression Visibility Wind Speed Wind Dir Waves Ship Positions

Bolero

Last reported at 2017-Oct-19 19:54 UTC. Time now 2017-Oct-20 12:23 UTC.
Position N 39°17' W 076°36'.

Length 37 m; draft 2.1 m.

Type: Pleasure craft. MMSI: 538070509.

Date/timePositionNaut miles runAvg speedWind from/ knotsBaromVisibWave heightAir tempDewpointWater temp
2017-Oct-19 19:54N 39°17' W 076°36'1 3.4
2017-Oct-19 19:30N 39°16' W 076°35'712.8
2017-Oct-19 18:57N 39°11' W 076°28'612.0
2017-Oct-19 18:29N 39°13' W 076°22'612.3
2017-Oct-19 18:00N 39°16' W 076°15'713.8
2017-Oct-19 17:31N 39°21' W 076°09'  
2017-Oct-16 15:04N 39°30' W 074°08'115.1
2017-Oct-16 15:00N 39°31' W 074°08'1515.2
2017-Oct-16 13:59N 39°46' W 074°04'3615.2
2017-Oct-16 11:36N 40°22' W 073°57'415.1
2017-Oct-16 11:19N 40°27' W 073°57'411.5
2017-Oct-16 11:00N 40°30' W 073°57'612.5
2017-Oct-16 10:30N 40°35' W 074°02'612.5
2017-Oct-16 10:00N 40°41' W 074°02'2 3.6
2017-Oct-16 09:30N 40°43' W 074°03'0 0.0
2017-Oct-16 09:00N 40°43' W 074°03'0 0.0
2017-Oct-16 08:30N 40°43' W 074°03'0 0.0
2017-Oct-16 08:00N 40°43' W 074°03'0 0.0
2017-Oct-16 07:30N 40°43' W 074°03'0 0.0
2017-Oct-16 07:00N 40°43' W 074°03'0 0.0
2017-Oct-16 06:30N 40°43' W 074°03'0 0.0
2017-Oct-16 06:00N 40°43' W 074°03'0 0.0
2017-Oct-16 05:30N 40°43' W 074°03'0 0.0
2017-Oct-16 05:00N 40°43' W 074°03'0 0.0
2017-Oct-16 04:30N 40°43' W 074°03'0 0.0
2017-Oct-16 04:00N 40°43' W 074°03'0 0.0
2017-Oct-16 03:31N 40°43' W 074°03'0 0.0
2017-Oct-16 03:00N 40°43' W 074°03'0 0.0
2017-Oct-16 02:30N 40°43' W 074°03'0 0.0
2017-Oct-16 02:00N 40°43' W 074°03'0 0.0
2017-Oct-16 01:30N 40°43' W 074°03'0 0.0
2017-Oct-16 01:00N 40°43' W 074°03'0 0.0
2017-Oct-16 00:30N 40°43' W 074°03'0 0.0
2017-Oct-16 00:00N 40°43' W 074°03'0 0.0
2017-Oct-15 23:30N 40°43' W 074°03'0 0.0
2017-Oct-15 23:00N 40°43' W 074°03'0 0.0
2017-Oct-15 22:30N 40°43' W 074°03'0 0.0
2017-Oct-15 22:00N 40°43' W 074°03'0 0.0
2017-Oct-15 21:30N 40°43' W 074°03'0 0.0
2017-Oct-15 21:00N 40°43' W 074°03'0 0.0
2017-Oct-15 20:30N 40°43' W 074°03'0 0.0
2017-Oct-15 20:00N 40°43' W 074°03'0 0.0
2017-Oct-15 19:30N 40°43' W 074°03'0 0.0
2017-Oct-15 19:00N 40°43' W 074°03'0 0.0
2017-Oct-15 18:30N 40°43' W 074°03'0 0.0
2017-Oct-15 18:00N 40°43' W 074°03'0 0.0
2017-Oct-13 23:32N 40°43' W 074°03'0 0.2
2017-Oct-13 23:30N 40°43' W 074°03'0 0.0
2017-Oct-13 23:00N 40°43' W 074°03'0 0.0
2017-Oct-13 22:29N 40°43' W 074°03'0 0.0
2017-Oct-13 22:00N 40°43' W 074°03'0 0.0
2017-Oct-13 21:30N 40°43' W 074°03'0 0.0
2017-Oct-13 21:00N 40°43' W 074°03'0 0.0
2017-Oct-13 20:30N 40°43' W 074°03'2 3.7
2017-Oct-13 20:00N 40°42' W 074°01'5 9.4
2017-Oct-13 19:29N 40°46' W 073°57'6213.3
2017-Oct-13 14:52N 41°07' W 072°40'714.4
2017-Oct-13 14:23N 41°09' W 072°31'513.8
2017-Oct-13 14:00N 41°10' W 072°25'  
2017-Oct-11 00:00N 42°22' W 071°04'0 0.0
2017-Oct-10 23:30N 42°22' W 071°04'0 0.0
2017-Oct-10 23:00N 42°22' W 071°04'0 0.0
2017-Oct-10 22:30N 42°22' W 071°04'0 0.0
2017-Oct-10 22:00N 42°22' W 071°04'0 0.0
2017-Oct-10 21:30N 42°22' W 071°04'0 0.0
2017-Oct-10 21:00N 42°22' W 071°04'0 0.0
2017-Oct-10 20:30N 42°22' W 071°04'0 0.0
2017-Oct-10 20:00N 42°22' W 071°04'0 0.0
2017-Oct-10 19:30N 42°22' W 071°04'0 0.0
2017-Oct-10 19:00N 42°22' W 071°04'0 0.0
2017-Oct-10 18:30N 42°22' W 071°04'0 0.0
2017-Oct-10 18:00N 42°22' W 071°04'0 0.0
2017-Oct-10 17:29N 42°22' W 071°04'0 0.0
2017-Oct-10 17:00N 42°22' W 071°04'0 0.0
2017-Oct-10 16:30N 42°22' W 071°04'0 0.0
2017-Oct-10 16:00N 42°22' W 071°04'0 0.0
2017-Oct-10 15:30N 42°22' W 071°04'0 0.0
2017-Oct-10 15:00N 42°22' W 071°04'0 0.0
2017-Oct-10 14:00N 42°22' W 071°04'0 0.0
2017-Oct-10 13:29N 42°22' W 071°04'0 0.0
2017-Oct-10 13:00N 42°22' W 071°04'0 0.0
2017-Oct-10 12:30N 42°22' W 071°04'0 0.0
2017-Oct-10 11:59N 42°22' W 071°04'0 0.0
2017-Oct-10 11:30N 42°22' W 071°04'0 0.0
2017-Oct-10 11:00N 42°22' W 071°04'0 0.0
2017-Oct-10 10:30N 42°22' W 071°04'0 0.0
2017-Oct-10 10:00N 42°22' W 071°04'0 0.0
2017-Oct-10 09:30N 42°22' W 071°04'0 0.0
2017-Oct-10 09:00N 42°22' W 071°04'0 0.0
2017-Oct-10 08:30N 42°22' W 071°04'0 0.0
2017-Oct-10 08:00N 42°22' W 071°04'0 0.0
2017-Oct-10 07:30N 42°22' W 071°04'0 0.0
2017-Oct-10 07:00N 42°22' W 071°04'0 0.0
2017-Oct-10 06:30N 42°22' W 071°04'0 0.0
2017-Oct-10 06:00N 42°22' W 071°04'0 0.0
2017-Oct-10 05:31N 42°22' W 071°04'0 0.0
2017-Oct-10 05:00N 42°22' W 071°04'0 0.0
2017-Oct-10 04:30N 42°22' W 071°04'0 0.0
2017-Oct-10 03:59N 42°22' W 071°04'0 0.0
2017-Oct-10 03:30N 42°22' W 071°04'0 0.0
2017-Oct-10 03:00N 42°22' W 071°04'0 0.0
2017-Oct-10 02:30N 42°22' W 071°04'0 0.0
2017-Oct-10 02:00N 42°22' W 071°04'0 0.0
2017-Oct-10 01:30N 42°22' W 071°04'0 0.0
2017-Oct-10 01:00N 42°22' W 071°04'0 0.0
2017-Oct-10 00:30N 42°22' W 071°04'0 0.0
2017-Oct-10 00:00N 42°22' W 071°04'0 0.0
2017-Oct-09 23:30N 42°22' W 071°04'0 0.0
2017-Oct-09 23:00N 42°22' W 071°04'0 0.0
2017-Oct-09 22:30N 42°22' W 071°04'0 0.0
2017-Oct-09 22:00N 42°22' W 071°04'0 0.0
2017-Oct-09 21:30N 42°22' W 071°04'0 0.0
2017-Oct-09 21:01N 42°22' W 071°04'0 0.0
2017-Oct-09 20:30N 42°22' W 071°04'0 0.0
2017-Oct-09 20:00N 42°22' W 071°04'  
Track history (hours):
 
Tides and Currents Weather Stations Pressure Air Temp Water Temp Dewpoint Dewpoint Depression Visibility Wind Speed Wind Dir Waves Ship Positions

Bolero

Last reported at 2017-Oct-19 19:54 UTC. Time now 2017-Oct-20 12:23 UTC.
Position N 39°17' W 076°36'.

Length 37 m; draft 2.1 m.

Type: Pleasure craft. MMSI: 538070509.

Date/timePositionNaut miles runAvg speedWind from/ knotsBaromVisibWave heightAir tempDewpointWater temp
2017-Oct-19 19:54N 39°17' W 076°36'1 3.4
2017-Oct-19 19:30N 39°16' W 076°35'712.8
2017-Oct-19 18:57N 39°11' W 076°28'612.0
2017-Oct-19 18:29N 39°13' W 076°22'612.3
2017-Oct-19 18:00N 39°16' W 076°15'713.8
2017-Oct-19 17:31N 39°21' W 076°09'  
2017-Oct-16 15:04N 39°30' W 074°08'115.1
2017-Oct-16 15:00N 39°31' W 074°08'1515.2
2017-Oct-16 13:59N 39°46' W 074°04'3615.2
2017-Oct-16 11:36N 40°22' W 073°57'415.1
2017-Oct-16 11:19N 40°27' W 073°57'411.5
2017-Oct-16 11:00N 40°30' W 073°57'612.5
2017-Oct-16 10:30N 40°35' W 074°02'612.5
2017-Oct-16 10:00N 40°41' W 074°02'2 3.6
2017-Oct-16 09:30N 40°43' W 074°03'0 0.0
2017-Oct-16 09:00N 40°43' W 074°03'0 0.0
2017-Oct-16 08:30N 40°43' W 074°03'0 0.0
2017-Oct-16 08:00N 40°43' W 074°03'0 0.0
2017-Oct-16 07:30N 40°43' W 074°03'0 0.0
2017-Oct-16 07:00N 40°43' W 074°03'0 0.0
2017-Oct-16 06:30N 40°43' W 074°03'0 0.0
2017-Oct-16 06:00N 40°43' W 074°03'0 0.0
2017-Oct-16 05:30N 40°43' W 074°03'0 0.0
2017-Oct-16 05:00N 40°43' W 074°03'0 0.0
2017-Oct-16 04:30N 40°43' W 074°03'0 0.0
2017-Oct-16 04:00N 40°43' W 074°03'0 0.0
2017-Oct-16 03:31N 40°43' W 074°03'0 0.0
2017-Oct-16 03:00N 40°43' W 074°03'0 0.0
2017-Oct-16 02:30N 40°43' W 074°03'0 0.0
2017-Oct-16 02:00N 40°43' W 074°03'0 0.0
2017-Oct-16 01:30N 40°43' W 074°03'0 0.0
2017-Oct-16 01:00N 40°43' W 074°03'0 0.0
2017-Oct-16 00:30N 40°43' W 074°03'0 0.0
2017-Oct-16 00:00N 40°43' W 074°03'0 0.0
2017-Oct-15 23:30N 40°43' W 074°03'0 0.0
2017-Oct-15 23:00N 40°43' W 074°03'0 0.0
2017-Oct-15 22:30N 40°43' W 074°03'0 0.0
2017-Oct-15 22:00N 40°43' W 074°03'0 0.0
2017-Oct-15 21:30N 40°43' W 074°03'0 0.0
2017-Oct-15 21:00N 40°43' W 074°03'0 0.0
2017-Oct-15 20:30N 40°43' W 074°03'0 0.0
2017-Oct-15 20:00N 40°43' W 074°03'0 0.0
2017-Oct-15 19:30N 40°43' W 074°03'0 0.0
2017-Oct-15 19:00N 40°43' W 074°03'0 0.0
2017-Oct-15 18:30N 40°43' W 074°03'0 0.0
2017-Oct-15 18:00N 40°43' W 074°03'0 0.0
2017-Oct-13 23:32N 40°43' W 074°03'0 0.2
2017-Oct-13 23:30N 40°43' W 074°03'0 0.0
2017-Oct-13 23:00N 40°43' W 074°03'0 0.0
2017-Oct-13 22:29N 40°43' W 074°03'0 0.0
2017-Oct-13 22:00N 40°43' W 074°03'0 0.0
2017-Oct-13 21:30N 40°43' W 074°03'0 0.0
2017-Oct-13 21:00N 40°43' W 074°03'0 0.0
2017-Oct-13 20:30N 40°43' W 074°03'2 3.7
2017-Oct-13 20:00N 40°42' W 074°01'5 9.4
2017-Oct-13 19:29N 40°46' W 073°57'6213.3
2017-Oct-13 14:52N 41°07' W 072°40'714.4
2017-Oct-13 14:23N 41°09' W 072°31'513.8
2017-Oct-13 14:00N 41°10' W 072°25'  
2017-Oct-11 00:00N 42°22' W 071°04'0 0.0
2017-Oct-10 23:30N 42°22' W 071°04'0 0.0
2017-Oct-10 23:00N 42°22' W 071°04'0 0.0
2017-Oct-10 22:30N 42°22' W 071°04'0 0.0
2017-Oct-10 22:00N 42°22' W 071°04'0 0.0
2017-Oct-10 21:30N 42°22' W 071°04'0 0.0
2017-Oct-10 21:00N 42°22' W 071°04'0 0.0
2017-Oct-10 20:30N 42°22' W 071°04'0 0.0
2017-Oct-10 20:00N 42°22' W 071°04'0 0.0
2017-Oct-10 19:30N 42°22' W 071°04'0 0.0
2017-Oct-10 19:00N 42°22' W 071°04'0 0.0
2017-Oct-10 18:30N 42°22' W 071°04'0 0.0
2017-Oct-10 18:00N 42°22' W 071°04'0 0.0
2017-Oct-10 17:29N 42°22' W 071°04'0 0.0
2017-Oct-10 17:00N 42°22' W 071°04'0 0.0
2017-Oct-10 16:30N 42°22' W 071°04'0 0.0
2017-Oct-10 16:00N 42°22' W 071°04'0 0.0
2017-Oct-10 15:30N 42°22' W 071°04'0 0.0
2017-Oct-10 15:00N 42°22' W 071°04'0 0.0
2017-Oct-10 14:00N 42°22' W 071°04'0 0.0
2017-Oct-10 13:29N 42°22' W 071°04'0 0.0
2017-Oct-10 13:00N 42°22' W 071°04'0 0.0
2017-Oct-10 12:30N 42°22' W 071°04'0 0.0
2017-Oct-10 11:59N 42°22' W 071°04'0 0.0
2017-Oct-10 11:30N 42°22' W 071°04'0 0.0
2017-Oct-10 11:00N 42°22' W 071°04'0 0.0
2017-Oct-10 10:30N 42°22' W 071°04'0 0.0
2017-Oct-10 10:00N 42°22' W 071°04'0 0.0
2017-Oct-10 09:30N 42°22' W 071°04'0 0.0
2017-Oct-10 09:00N 42°22' W 071°04'0 0.0
2017-Oct-10 08:30N 42°22' W 071°04'0 0.0
2017-Oct-10 08:00N 42°22' W 071°04'0 0.0
2017-Oct-10 07:30N 42°22' W 071°04'0 0.0
2017-Oct-10 07:00N 42°22' W 071°04'0 0.0
2017-Oct-10 06:30N 42°22' W 071°04'0 0.0
2017-Oct-10 06:00N 42°22' W 071°04'0 0.0
2017-Oct-10 05:31N 42°22' W 071°04'0 0.0
2017-Oct-10 05:00N 42°22' W 071°04'0 0.0
2017-Oct-10 04:30N 42°22' W 071°04'0 0.0
2017-Oct-10 03:59N 42°22' W 071°04'0 0.0
2017-Oct-10 03:30N 42°22' W 071°04'0 0.0
2017-Oct-10 03:00N 42°22' W 071°04'0 0.0
2017-Oct-10 02:30N 42°22' W 071°04'0 0.0
2017-Oct-10 02:00N 42°22' W 071°04'0 0.0
2017-Oct-10 01:30N 42°22' W 071°04'0 0.0
2017-Oct-10 01:00N 42°22' W 071°04'0 0.0
2017-Oct-10 00:30N 42°22' W 071°04'0 0.0
2017-Oct-10 00:00N 42°22' W 071°04'0 0.0
2017-Oct-09 23:30N 42°22' W 071°04'0 0.0
2017-Oct-09 23:00N 42°22' W 071°04'0 0.0
2017-Oct-09 22:30N 42°22' W 071°04'0 0.0
2017-Oct-09 22:00N 42°22' W 071°04'0 0.0
2017-Oct-09 21:30N 42°22' W 071°04'0 0.0
2017-Oct-09 21:01N 42°22' W 071°04'0 0.0
2017-Oct-09 20:30N 42°22' W 071°04'0 0.0
2017-Oct-09 20:00N 42°22' W 071°04'  

Dump ship's entire track history